Hlavní strana
METAR-TAF:

METAR-TAF

Letiště :

Monticello, Kentucky, Spojené státy americké

zeměpisná šířka: 36-51-19N, zeměpisná délka: 084-51-22W, výška: 294 m

Aktuální stav počasí

Zpráva byla vytvořena před 34 minutami, v 02:56 UTC
Severoseverovýchodní vítr 15 kt s nárazy do 18 kt
Teplota 2°C
Vlhkost vzduchu 93%
Tlak 1029 hPa
Viditelnost: 14.5 km
Zataženo ve výšce 1100 ft

METAR: KEKQ 140256Z AUTO 02015G18KT 9SM OVC011 02/01 A3040 RMK AO2 SLP322 6//// T00220006 53007 PNO $

Čas: 22:30 (03:30 UTC)


TAF: chybějící

Stav a předpovědi počasí z více než 4 000 letišť (zprávy METAR a TAF).

Červené a žluté tečky na mapě představují dostupné meteorologické stanice.

Když kurzor umístíte na tečku, zobrazí se název stanice.

Pak kliknutím zobrazíte stav a předpověď počasí.

Chcete-li změnit mapu, kliknutím na zelené tlačítko se znaménkem +mapu přiblížíte, kliknutím na zelené tlačítko se znaménkem – mapu oddálíte a kliknutím na zelené šipky přejdete na sousední mapy.


METAR-TAF: